createdAt,value
2023-01-19T00:02:51.828Z,14.87
2023-01-19T00:07:54.985Z,12.00
2023-01-19T00:12:56.784Z,13.17
2023-01-19T00:17:58.506Z,13.40
2023-01-19T00:23:01.963Z,15.17
2023-01-19T00:28:04.105Z,17.87
2023-01-19T00:33:05.877Z,18.73
2023-01-19T00:38:09.071Z,19.07
2023-01-19T00:43:10.738Z,12.13
2023-01-19T00:48:12.386Z,13.30
2023-01-19T00:53:15.407Z,12.20
2023-01-19T00:58:17.056Z,13.83
2023-01-19T01:03:18.753Z,24.53
2023-01-19T01:08:21.800Z,13.00
2023-01-19T01:13:26.181Z,9.80
2023-01-19T01:18:29.097Z,11.77
2023-01-19T01:23:32.098Z,11.50
2023-01-19T01:28:33.759Z,10.63
2023-01-19T01:33:40.531Z,9.27
2023-01-19T01:38:44.768Z,13.17
2023-01-19T01:43:47.618Z,14.80
2023-01-19T01:48:50.811Z,11.87
2023-01-19T01:54:04.078Z,13.10
2023-01-19T01:59:07.546Z,13.03
2023-01-19T02:04:09.821Z,14.53
2023-01-19T02:09:31.410Z,10.87
2023-01-19T02:14:34.491Z,14.53
2023-01-19T02:19:39.253Z,11.63
2023-01-19T02:24:42.317Z,8.67
2023-01-19T02:29:44.055Z,11.90
2023-01-19T02:34:45.717Z,11.83
2023-01-19T02:39:50.796Z,12.50
2023-01-19T02:44:53.602Z,10.53
2023-01-19T02:49:56.252Z,10.00
2023-01-19T02:55:02.137Z,14.30
2023-01-19T03:00:09.668Z,13.77
2023-01-19T03:05:19.725Z,11.40
2023-01-19T03:10:28.432Z,11.70
2023-01-19T03:15:31.958Z,12.03
2023-01-19T03:20:33.952Z,11.87
2023-01-19T03:25:38.387Z,10.23
2023-01-19T03:30:41.561Z,12.87
2023-01-19T03:35:44.886Z,11.40
2023-01-19T03:40:48.175Z,12.77
2023-01-19T03:45:49.880Z,12.87
2023-01-19T03:50:51.868Z,17.87
2023-01-19T03:55:55.022Z,13.20
2023-01-19T04:00:56.801Z,8.87
2023-01-19T04:05:58.560Z,14.53
2023-01-19T04:11:01.606Z,9.60
2023-01-19T04:16:03.768Z,12.70
2023-01-19T04:21:06.948Z,15.33
2023-01-19T04:26:09.956Z,10.13
2023-01-19T04:31:11.677Z,12.10
2023-01-19T04:36:13.737Z,13.17
2023-01-19T04:41:17.004Z,15.03
2023-01-19T04:46:18.734Z,10.00
2023-01-19T04:51:20.483Z,10.60
2023-01-19T04:56:23.521Z,12.37
2023-01-19T05:01:25.287Z,14.80
2023-01-19T05:06:27.091Z,11.30
2023-01-19T05:11:30.770Z,10.80
2023-01-19T05:16:32.683Z,10.70
2023-01-19T05:21:34.401Z,13.83
2023-01-19T05:26:37.664Z,11.40
2023-01-19T05:31:39.478Z,14.03
2023-01-19T05:36:41.320Z,12.33
2023-01-19T05:41:47.700Z,11.37
2023-01-19T05:46:49.461Z,12.17
2023-01-19T05:51:51.156Z,13.23
2023-01-19T05:56:54.302Z,8.47
2023-01-19T06:01:57.118Z,10.57
2023-01-19T06:06:58.944Z,10.00
2023-01-19T06:12:02.037Z,12.63
2023-01-19T06:17:05.966Z,11.60
2023-01-19T06:22:07.668Z,8.23
2023-01-19T06:27:11.390Z,15.80
2023-01-19T06:32:13.071Z,11.20
2023-01-19T06:37:16.652Z,10.20
2023-01-19T06:42:19.821Z,10.53
2023-01-19T06:47:21.671Z,10.73
2023-01-19T06:52:23.393Z,8.73
2023-01-19T06:57:26.594Z,12.20
2023-01-19T07:02:28.898Z,8.07
2023-01-19T07:07:31.123Z,11.17
2023-01-19T07:12:34.120Z,9.40
2023-01-19T07:17:36.300Z,12.30
2023-01-19T07:22:38.086Z,10.23
2023-01-19T07:27:41.113Z,10.20
2023-01-19T07:32:43.459Z,23.87
2023-01-19T07:37:45.172Z,21.20
2023-01-19T07:42:48.748Z,37.20
2023-01-19T07:47:51.019Z,14.50
2023-01-19T07:52:53.309Z,28.00
2023-01-19T07:57:56.343Z,24.73
2023-01-19T08:02:59.427Z,13.87
2023-01-19T08:08:01.402Z,20.47
2023-01-19T08:13:04.449Z,13.60
2023-01-19T08:18:06.849Z,14.40
2023-01-19T08:23:08.622Z,14.47
2023-01-19T08:28:12.988Z,13.03
2023-01-19T08:33:14.731Z,12.00
2023-01-19T08:38:17.086Z,11.57
2023-01-19T08:43:20.279Z,13.93
2023-01-19T08:48:22.674Z,8.13
2023-01-19T08:53:24.445Z,9.53
2023-01-19T08:58:27.556Z,12.07
2023-01-19T09:03:29.528Z,11.00
2023-01-19T09:08:31.274Z,8.33
2023-01-19T09:13:34.386Z,7.77
2023-01-19T09:18:36.086Z,9.03
2023-01-19T09:23:37.791Z,10.03
2023-01-19T09:28:40.759Z,10.83
2023-01-19T09:33:42.444Z,8.27
2023-01-19T09:38:44.113Z,8.00
2023-01-19T09:43:48.434Z,10.00
2023-01-19T09:48:51.232Z,9.87
2023-01-19T09:54:00.548Z,12.50
2023-01-19T09:59:06.126Z,11.33
2023-01-19T10:04:16.965Z,10.70
2023-01-19T10:09:20.766Z,12.93
2023-01-19T10:14:25.867Z,8.27
2023-01-19T10:19:29.355Z,8.03
2023-01-19T10:24:33.252Z,9.67
2023-01-19T10:29:37.726Z,8.20
2023-01-19T10:34:39.537Z,8.47
2023-01-19T10:39:41.216Z,13.40
2023-01-19T10:44:45.730Z,9.57
2023-01-19T10:49:47.811Z,9.20
2023-01-19T10:54:49.551Z,11.80
2023-01-19T10:59:52.754Z,10.20
2023-01-19T11:04:55.796Z,8.27
2023-01-19T11:10:22.974Z,9.40
2023-01-19T11:15:29.730Z,11.60
2023-01-19T11:20:35.815Z,15.43
2023-01-19T11:25:37.569Z,27.10
2023-01-19T11:30:53.933Z,38.53
2023-01-19T11:36:02.270Z,24.37
2023-01-19T11:41:06.565Z,13.73
2023-01-19T11:46:09.878Z,10.00
2023-01-19T11:51:13.604Z,11.73
2023-01-19T11:56:15.867Z,6.77
2023-01-19T12:01:21.154Z,5.43
2023-01-19T12:06:25.277Z,6.20
2023-01-19T12:11:31.467Z,8.10
2023-01-19T12:16:34.500Z,7.30
2023-01-19T12:21:36.323Z,7.50
2023-01-19T12:26:38.615Z,12.57
2023-01-19T12:31:42.973Z,6.20
2023-01-19T12:36:45.182Z,6.60
2023-01-19T12:41:50.981Z,6.50
2023-01-19T12:46:55.169Z,4.97
2023-01-19T12:52:11.838Z,7.30
2023-01-19T12:57:18.500Z,5.40
2023-01-19T13:02:45.252Z,6.27
2023-01-19T13:08:18.723Z,6.50
2023-01-19T13:13:21.273Z,5.10
2023-01-19T13:18:24.833Z,5.60
2023-01-19T13:23:27.089Z,4.03
2023-01-19T13:28:41.036Z,4.03
2023-01-19T13:33:47.982Z,3.90
2023-01-19T13:38:50.033Z,4.23
2023-01-19T13:43:57.009Z,7.97
2023-01-19T13:49:02.304Z,3.97
2023-01-19T13:54:05.568Z,4.50
2023-01-19T13:59:11.782Z,4.30
2023-01-19T14:04:28.491Z,4.57
2023-01-19T14:09:30.264Z,4.50
2023-01-19T14:14:32.025Z,4.37
2023-01-19T14:19:48.541Z,4.30
2023-01-19T14:24:50.251Z,4.93
2023-01-19T14:29:53.741Z,6.80
2023-01-19T14:35:14.907Z,9.37
2023-01-19T14:40:18.381Z,7.90
2023-01-19T14:45:21.913Z,8.30
2023-01-19T14:50:26.143Z,12.83
2023-01-19T14:55:32.176Z,6.40
2023-01-19T15:00:33.850Z,7.47
2023-01-19T15:05:36.856Z,7.33
2023-01-19T15:10:38.696Z,10.20
2023-01-19T15:15:55.643Z,10.20
2023-01-19T15:21:02.895Z,14.10
2023-01-19T15:26:04.955Z,8.60
2023-01-19T15:31:06.722Z,29.63
2023-01-19T15:36:12.380Z,12.13
2023-01-19T15:41:14.833Z,12.20
2023-01-19T15:46:17.303Z,16.20
2023-01-19T15:51:25.623Z,13.53
2023-01-19T15:56:29.272Z,12.67
2023-01-19T16:01:32.904Z,19.30
2023-01-19T16:06:36.864Z,24.40
2023-01-19T16:11:38.685Z,28.80
2023-01-19T16:16:40.575Z,51.47
2023-01-19T16:21:43.935Z,16.23
2023-01-19T16:26:45.569Z,38.13
2023-01-19T16:31:47.256Z,17.83
2023-01-19T16:36:50.297Z,17.97
2023-01-19T16:41:51.988Z,12.40
2023-01-19T16:46:54.435Z,20.33
2023-01-19T16:51:58.390Z,23.33
2023-01-19T16:57:00.448Z,18.07
2023-01-19T17:02:02.563Z,15.77
2023-01-19T17:07:05.661Z,15.50
2023-01-19T17:12:09.115Z,19.13
2023-01-19T17:17:10.870Z,35.07
2023-01-19T17:22:14.923Z,28.20
2023-01-19T17:27:17.262Z,31.20
2023-01-19T17:32:19.013Z,19.77
2023-01-19T17:37:22.017Z,21.60
2023-01-19T17:42:24.318Z,15.77
2023-01-19T17:47:26.279Z,21.00
2023-01-19T17:52:29.647Z,20.93
2023-01-19T17:57:31.474Z,30.37
2023-01-19T18:02:34.343Z,19.07
2023-01-19T18:07:37.446Z,19.73
2023-01-19T18:12:39.244Z,35.20
2023-01-19T18:17:41.078Z,23.47
2023-01-19T18:22:44.262Z,25.13
2023-01-19T18:27:45.946Z,18.73
2023-01-19T18:32:47.680Z,20.20
2023-01-19T18:37:51.241Z,24.53
2023-01-19T18:42:52.995Z,21.80
2023-01-19T18:47:54.740Z,24.10
2023-01-19T18:52:57.875Z,27.40
2023-01-19T18:57:59.579Z,50.53
2023-01-19T19:03:01.403Z,39.17
2023-01-19T19:08:05.044Z,30.23
2023-01-19T19:13:06.766Z,36.90
2023-01-19T19:18:08.971Z,40.93
2023-01-19T19:23:12.006Z,26.00
2023-01-19T19:28:13.659Z,37.07
2023-01-19T19:33:15.372Z,46.53
2023-01-19T19:38:18.428Z,27.70
2023-01-19T19:43:21.052Z,29.93
2023-01-19T19:48:23.117Z,25.77
2023-01-19T19:53:26.143Z,34.70
2023-01-19T19:58:28.196Z,33.87
2023-01-19T20:03:30.492Z,28.07
2023-01-19T20:08:33.658Z,37.70
2023-01-19T20:13:35.626Z,34.80
2023-01-19T20:18:37.497Z,42.53
2023-01-19T20:23:40.601Z,32.50
2023-01-19T20:28:42.354Z,29.37
2023-01-19T20:33:44.055Z,30.63
2023-01-19T20:38:47.095Z,39.53
2023-01-19T20:43:48.905Z,37.03
2023-01-19T20:48:53.515Z,34.00
2023-01-19T20:53:57.065Z,37.10
2023-01-19T20:58:58.901Z,56.33
2023-01-19T21:04:00.824Z,47.23
2023-01-19T21:09:04.141Z,40.87
2023-01-19T21:14:05.942Z,48.60
2023-01-19T21:19:07.902Z,46.53
2023-01-19T21:24:11.048Z,48.70
2023-01-19T21:29:13.903Z,46.73
2023-01-19T21:34:15.648Z,41.80
2023-01-19T21:39:18.692Z,49.20
2023-01-19T21:44:20.410Z,56.87
2023-01-19T21:49:22.164Z,52.73
2023-01-19T21:54:25.162Z,49.10
2023-01-19T21:59:27.014Z,45.93
2023-01-19T22:04:28.710Z,54.03
2023-01-19T22:09:33.245Z,60.10
2023-01-19T22:14:34.949Z,49.80
2023-01-19T22:19:36.662Z,63.07
2023-01-19T22:24:39.932Z,53.37
2023-01-19T22:29:41.613Z,50.10
2023-01-19T22:34:43.303Z,57.67
2023-01-19T22:39:46.426Z,59.93
2023-01-19T22:44:48.168Z,55.27
2023-01-19T22:49:49.909Z,66.20
2023-01-19T22:54:56.173Z,75.87
2023-01-19T22:59:57.865Z,64.87
2023-01-19T23:04:59.704Z,57.70
2023-01-19T23:10:02.739Z,60.67
2023-01-19T23:15:05.550Z,54.07
2023-01-19T23:20:08.714Z,65.03
2023-01-19T23:25:12.194Z,64.60
2023-01-19T23:30:14.741Z,55.60
2023-01-19T23:35:16.551Z,67.27
2023-01-19T23:40:19.765Z,57.73
2023-01-19T23:45:21.447Z,68.50
2023-01-19T23:50:23.214Z,63.83
2023-01-19T23:55:27.127Z,61.20
